createdAt,value
2022-12-12T00:00:58.621Z,-0.04
2022-12-12T00:01:56.291Z,-0.05
2022-12-12T00:02:55.349Z,-0.05
2022-12-12T00:03:55.307Z,-0.07
2022-12-12T00:04:55.262Z,-0.07
2022-12-12T00:05:55.241Z,-0.07
2022-12-12T00:06:55.243Z,-0.05
2022-12-12T00:07:55.264Z,-0.05
2022-12-12T00:08:55.211Z,-0.05
2022-12-12T00:09:55.205Z,-0.05
2022-12-12T00:10:55.195Z,-0.05
2022-12-12T00:11:55.191Z,-0.05
2022-12-12T00:12:55.174Z,-0.04
2022-12-12T00:13:55.173Z,-0.05
2022-12-12T00:14:55.161Z,-0.04
2022-12-12T00:15:55.177Z,-0.04
2022-12-12T00:16:55.186Z,-0.04
2022-12-12T00:17:55.111Z,-0.04
2022-12-12T00:18:55.122Z,-0.07
2022-12-12T00:19:55.104Z,-0.08
2022-12-12T00:20:55.091Z,-0.07
2022-12-12T00:21:55.082Z,-0.10
2022-12-12T00:22:55.144Z,-0.10
2022-12-12T00:23:55.060Z,-0.11
2022-12-12T00:24:55.049Z,-0.14
2022-12-12T00:25:55.033Z,-0.14
2022-12-12T00:26:55.041Z,-0.14
2022-12-12T00:27:55.001Z,-0.15
2022-12-12T00:28:55.002Z,-0.16
2022-12-12T00:29:54.982Z,-0.16
2022-12-12T00:30:55.051Z,-0.15
2022-12-12T00:31:54.983Z,-0.18
2022-12-12T00:32:54.963Z,-0.18
2022-12-12T00:33:54.942Z,-0.18
2022-12-12T00:34:54.932Z,-0.21
2022-12-12T00:35:54.925Z,-0.19
2022-12-12T00:36:54.923Z,-0.18
2022-12-12T00:37:54.920Z,-0.19
2022-12-12T00:38:54.902Z,-0.21
2022-12-12T00:39:54.874Z,-0.21
2022-12-12T00:40:54.874Z,-0.21
2022-12-12T00:41:54.910Z,-0.21
2022-12-12T00:42:54.852Z,-0.21
2022-12-12T00:43:54.851Z,-0.19
2022-12-12T00:44:54.832Z,-0.19
2022-12-12T00:45:54.814Z,-0.22
2022-12-12T00:46:54.837Z,-0.21
2022-12-12T00:47:54.804Z,-0.22
2022-12-12T00:48:54.781Z,-0.21
2022-12-12T00:49:54.793Z,-0.19
2022-12-12T00:50:54.770Z,-0.22
2022-12-12T00:51:54.761Z,-0.22
2022-12-12T00:52:54.743Z,-0.22
2022-12-12T00:53:54.733Z,-0.21
2022-12-12T00:54:54.733Z,-0.21
2022-12-12T00:55:54.712Z,-0.21
2022-12-12T00:56:54.712Z,-0.21
2022-12-12T00:57:54.683Z,-0.21
2022-12-12T00:58:54.685Z,-0.22
2022-12-12T00:59:54.674Z,-0.21
2022-12-12T01:00:54.660Z,-0.22
2022-12-12T01:01:54.717Z,-0.23
2022-12-12T01:02:54.756Z,-0.22
2022-12-12T01:03:54.633Z,-0.21
2022-12-12T01:04:54.616Z,-0.22
2022-12-12T01:05:54.623Z,-0.22
2022-12-12T01:06:54.616Z,-0.22
2022-12-12T01:07:54.673Z,-0.21
2022-12-12T01:08:54.576Z,-0.22
2022-12-12T01:09:54.563Z,-0.19
2022-12-12T01:10:54.596Z,-0.23
2022-12-12T01:11:54.566Z,-0.21
2022-12-12T01:12:54.541Z,-0.21
2022-12-12T01:13:54.546Z,-0.22
2022-12-12T01:14:54.514Z,-0.22
2022-12-12T01:15:54.544Z,-0.21
2022-12-12T01:16:54.502Z,-0.21
2022-12-12T01:17:54.473Z,-0.21
2022-12-12T01:18:54.472Z,-0.18
2022-12-12T01:19:54.464Z,-0.19
2022-12-12T01:20:54.464Z,-0.16
2022-12-12T01:21:54.473Z,-0.18
2022-12-12T01:22:54.424Z,-0.16
2022-12-12T01:23:54.434Z,-0.18
2022-12-12T01:24:54.413Z,-0.16
2022-12-12T01:25:54.404Z,-0.18
2022-12-12T01:26:54.393Z,-0.18
2022-12-12T01:27:54.383Z,-0.18
2022-12-12T01:28:54.433Z,-0.16
2022-12-12T01:29:54.374Z,-0.16
2022-12-12T01:30:54.348Z,-0.16
2022-12-12T01:31:54.368Z,-0.15
2022-12-12T01:32:54.364Z,-0.14
2022-12-12T01:33:54.322Z,-0.15
2022-12-12T01:34:54.297Z,-0.15
2022-12-12T01:35:54.368Z,-0.15
2022-12-12T01:36:54.284Z,-0.15
2022-12-12T01:37:54.267Z,-0.14
2022-12-12T01:38:54.259Z,-0.14
2022-12-12T01:39:54.245Z,-0.15
2022-12-12T01:40:54.257Z,-0.16
2022-12-12T01:41:54.244Z,-0.15
2022-12-12T01:42:54.224Z,-0.15
2022-12-12T01:43:54.220Z,-0.16
2022-12-12T01:44:54.200Z,-0.16
2022-12-12T01:45:54.185Z,-0.18
2022-12-12T01:46:54.246Z,-0.16
2022-12-12T01:47:54.163Z,-0.16
2022-12-12T01:48:54.154Z,-0.18
2022-12-12T01:49:54.148Z,-0.18
2022-12-12T01:50:54.134Z,-0.16
2022-12-12T01:51:54.123Z,-0.16
2022-12-12T01:52:54.125Z,-0.18
2022-12-12T01:53:54.106Z,-0.18
2022-12-12T01:54:54.083Z,-0.18
2022-12-12T01:55:54.084Z,-0.18
2022-12-12T01:56:54.064Z,-0.18
2022-12-12T01:57:54.065Z,-0.18
2022-12-12T01:58:54.045Z,-0.18
2022-12-12T01:59:54.035Z,-0.16
2022-12-12T02:00:54.071Z,-0.19
2022-12-12T02:01:54.104Z,-0.19
2022-12-12T02:02:54.014Z,-0.19
2022-12-12T02:03:53.995Z,-0.19
2022-12-12T02:04:53.983Z,-0.18
2022-12-12T02:05:53.974Z,-0.21
2022-12-12T02:06:53.956Z,-0.21
2022-12-12T02:07:54.034Z,-0.22
2022-12-12T02:08:53.938Z,-0.22
2022-12-12T02:09:53.926Z,-0.23
2022-12-12T02:10:53.924Z,-0.22
2022-12-12T02:11:53.917Z,-0.23
2022-12-12T02:12:53.912Z,-0.23
2022-12-12T02:13:53.963Z,-0.23
2022-12-12T02:14:53.884Z,-0.23
2022-12-12T02:15:53.887Z,-0.23
2022-12-12T02:16:53.902Z,-0.23
2022-12-12T02:17:53.967Z,-0.23
2022-12-12T02:18:53.837Z,-0.25
2022-12-12T02:19:53.835Z,-0.23
2022-12-12T02:20:53.816Z,-0.29
2022-12-12T02:21:53.823Z,-0.29
2022-12-12T02:22:53.820Z,-0.31
2022-12-12T02:23:53.783Z,-0.33
2022-12-12T02:24:53.774Z,-0.33
2022-12-12T02:25:53.767Z,-0.33
2022-12-12T02:26:53.755Z,-0.36
2022-12-12T02:27:53.743Z,-0.36
2022-12-12T02:28:53.725Z,-0.34
2022-12-12T02:29:53.724Z,-0.36
2022-12-12T02:30:53.709Z,-0.36
2022-12-12T02:31:53.788Z,-0.37
2022-12-12T02:32:53.704Z,-0.40
2022-12-12T02:33:53.679Z,-0.43
2022-12-12T02:34:53.717Z,-0.46
2022-12-12T02:35:53.663Z,-0.46
2022-12-12T02:36:53.636Z,-0.44
2022-12-12T02:37:53.647Z,-0.46
2022-12-12T02:38:53.629Z,-0.46
2022-12-12T02:39:53.606Z,-0.47
2022-12-12T02:40:53.617Z,-0.46
2022-12-12T02:41:53.595Z,-0.47
2022-12-12T02:42:53.585Z,-0.49
2022-12-12T02:43:53.574Z,-0.49
2022-12-12T02:44:53.586Z,-0.51
2022-12-12T02:45:53.548Z,-0.52
2022-12-12T02:46:53.612Z,-0.51
2022-12-12T02:47:53.547Z,-0.55
2022-12-12T02:48:53.516Z,-0.54
2022-12-12T02:49:53.538Z,-0.54
2022-12-12T02:50:53.495Z,-0.57
2022-12-12T02:51:53.476Z,-0.57
2022-12-12T02:52:53.527Z,-0.57
2022-12-12T02:53:53.467Z,-0.57
2022-12-12T02:54:53.448Z,-0.57
2022-12-12T02:55:53.447Z,-0.58
2022-12-12T02:56:53.438Z,-0.61
2022-12-12T02:57:53.429Z,-0.61
2022-12-12T02:58:53.416Z,-0.61
2022-12-12T02:59:53.405Z,-0.60
2022-12-12T03:00:53.420Z,-0.61
2022-12-12T03:01:53.431Z,-0.61
2022-12-12T03:02:53.417Z,-0.62
2022-12-12T03:03:53.360Z,-0.61
2022-12-12T03:04:53.348Z,-0.64
2022-12-12T03:05:53.366Z,-0.65
2022-12-12T03:06:53.319Z,-0.65
2022-12-12T03:07:53.394Z,-0.67
2022-12-12T03:08:53.327Z,-0.67
2022-12-12T03:09:53.287Z,-0.67
2022-12-12T03:10:53.287Z,-0.69
2022-12-12T03:11:53.277Z,-0.69
2022-12-12T03:12:53.267Z,-0.69
2022-12-12T03:13:53.269Z,-0.70
2022-12-12T03:14:53.237Z,-0.70
2022-12-12T03:15:53.294Z,-0.70
2022-12-12T03:16:53.217Z,-0.72
2022-12-12T03:17:53.245Z,-0.72
2022-12-12T03:18:53.194Z,-0.73
2022-12-12T03:19:53.196Z,-0.72
2022-12-12T03:20:53.177Z,-0.73
2022-12-12T03:21:53.165Z,-0.73
2022-12-12T03:22:53.168Z,-0.73
2022-12-12T03:23:53.146Z,-0.75
2022-12-12T03:24:53.128Z,-0.75
2022-12-12T03:25:53.137Z,-0.76
2022-12-12T03:26:53.107Z,-0.76
2022-12-12T03:27:53.139Z,-0.78
2022-12-12T03:28:53.091Z,-0.78
2022-12-12T03:29:53.104Z,-0.80
2022-12-12T03:30:53.069Z,-0.79
2022-12-12T03:31:53.203Z,-0.79
2022-12-12T03:32:53.063Z,-0.78
2022-12-12T03:33:53.040Z,-0.80
2022-12-12T03:34:53.027Z,-0.82
2022-12-12T03:35:53.024Z,-0.80
2022-12-12T03:36:53.006Z,-0.82
2022-12-12T03:37:53.034Z,-0.82
2022-12-12T03:38:52.987Z,-0.82
2022-12-12T03:39:53.058Z,-0.82
2022-12-12T03:40:52.977Z,-0.83
2022-12-12T03:41:52.966Z,-0.86
2022-12-12T03:42:52.936Z,-0.89
2022-12-12T03:43:52.961Z,-0.91
2022-12-12T03:44:52.927Z,-0.92
2022-12-12T03:45:52.947Z,-0.94
2022-12-12T03:46:52.915Z,-0.94
2022-12-12T03:47:52.894Z,-0.95
2022-12-12T03:48:52.887Z,-0.97
2022-12-12T03:49:52.881Z,-0.97
2022-12-12T03:50:52.857Z,-0.97
2022-12-12T03:51:52.862Z,-0.97
2022-12-12T03:52:52.838Z,-0.95
2022-12-12T03:53:52.836Z,-0.98
2022-12-12T03:54:52.818Z,-0.98
2022-12-12T03:55:52.810Z,-0.97
2022-12-12T03:56:52.805Z,-0.97
2022-12-12T03:57:52.788Z,-0.97
2022-12-12T03:58:52.850Z,-0.97
2022-12-12T03:59:52.768Z,-0.98
2022-12-12T04:00:52.798Z,-0.99
2022-12-12T04:01:52.821Z,-0.98
2022-12-12T04:02:52.747Z,-0.98
2022-12-12T04:03:52.751Z,-0.98
2022-12-12T04:04:52.737Z,-0.99
2022-12-12T04:05:52.743Z,-1.01
2022-12-12T04:06:52.703Z,-1.01
2022-12-12T04:07:52.720Z,-1.01
2022-12-12T04:08:52.686Z,-1.02
2022-12-12T04:09:52.670Z,-1.04
2022-12-12T04:10:52.649Z,-1.07
2022-12-12T04:11:52.638Z,-1.09
2022-12-12T04:12:52.628Z,-1.10
2022-12-12T04:13:52.627Z,-1.12
2022-12-12T04:14:52.610Z,-1.15
2022-12-12T04:15:52.632Z,-1.16
2022-12-12T04:16:52.654Z,-1.17
2022-12-12T04:17:52.569Z,-1.19
2022-12-12T04:18:52.578Z,-1.25
2022-12-12T04:19:52.578Z,-1.28
2022-12-12T04:20:52.556Z,-1.31
2022-12-12T04:21:52.537Z,-1.34
2022-12-12T04:22:52.527Z,-1.37
2022-12-12T04:23:52.518Z,-1.43
2022-12-12T04:24:52.498Z,-1.46
2022-12-12T04:25:52.487Z,-1.49
2022-12-12T04:26:52.527Z,-1.55
2022-12-12T04:27:52.459Z,-1.56
2022-12-12T04:28:52.487Z,-1.59
2022-12-12T04:29:52.448Z,-1.61
2022-12-12T04:30:52.437Z,-1.58
2022-12-12T04:31:52.473Z,-1.61
2022-12-12T04:32:52.416Z,-1.61
2022-12-12T04:33:52.417Z,-1.67
2022-12-12T04:34:52.417Z,-1.70
2022-12-12T04:35:52.380Z,-1.74
2022-12-12T04:36:52.378Z,-1.79
2022-12-12T04:37:52.370Z,-1.80
2022-12-12T04:38:52.377Z,-1.85
2022-12-12T04:39:52.357Z,-1.88
2022-12-12T04:40:52.359Z,-1.91
2022-12-12T04:41:52.337Z,-1.94
2022-12-12T04:42:52.338Z,-1.98
2022-12-12T04:43:52.318Z,-2.00
2022-12-12T04:44:52.389Z,-2.03
2022-12-12T04:45:52.320Z,-2.06
2022-12-12T04:46:52.372Z,-2.06
2022-12-12T04:47:52.260Z,-2.10
2022-12-12T04:48:53.692Z,-2.12
2022-12-12T04:49:52.237Z,-2.15
2022-12-12T04:50:52.229Z,-2.12
2022-12-12T04:51:52.212Z,-2.16
2022-12-12T04:52:52.208Z,-2.15
2022-12-12T04:53:52.207Z,-2.12
2022-12-12T04:54:52.176Z,-2.10
2022-12-12T04:55:52.169Z,-2.09
2022-12-12T04:56:52.189Z,-2.05
2022-12-12T04:57:52.149Z,-2.00
2022-12-12T04:58:52.158Z,-1.98
2022-12-12T04:59:52.127Z,-1.98
2022-12-12T05:00:52.176Z,-1.97
2022-12-12T05:01:53.587Z,-1.97
2022-12-12T05:02:52.102Z,-1.97
2022-12-12T05:03:52.106Z,-1.95
2022-12-12T05:04:52.088Z,-1.94
2022-12-12T05:05:52.068Z,-1.92
2022-12-12T05:06:52.058Z,-1.91
2022-12-12T05:07:52.107Z,-1.90
2022-12-12T05:08:52.067Z,-1.88
2022-12-12T05:09:52.150Z,-1.85
2022-12-12T05:10:52.067Z,-1.84
2022-12-12T05:11:52.057Z,-1.84
2022-12-12T05:12:52.006Z,-1.84
2022-12-12T05:13:52.127Z,-1.85
2022-12-12T05:14:51.970Z,-1.87
2022-12-12T05:15:52.022Z,-1.90
2022-12-12T05:16:52.003Z,-1.90
2022-12-12T05:17:52.240Z,-1.91
2022-12-12T05:18:51.939Z,-1.92
2022-12-12T05:19:51.927Z,-1.91
2022-12-12T05:20:51.920Z,-1.87
2022-12-12T05:21:51.888Z,-1.82
2022-12-12T05:22:51.888Z,-1.77
2022-12-12T05:23:51.884Z,-1.72
2022-12-12T05:24:51.880Z,-1.70
2022-12-12T05:25:51.855Z,-1.70
2022-12-12T05:26:51.858Z,-1.70
2022-12-12T05:27:51.829Z,-1.72
2022-12-12T05:28:51.837Z,-1.69
2022-12-12T05:29:51.817Z,-1.69
2022-12-12T05:30:51.856Z,-1.72
2022-12-12T05:31:51.788Z,-1.69
2022-12-12T05:32:51.786Z,-1.67
2022-12-12T05:33:51.780Z,-1.69
2022-12-12T05:34:51.767Z,-1.69
2022-12-12T05:35:51.751Z,-1.66
2022-12-12T05:36:51.738Z,-1.66
2022-12-12T05:37:52.373Z,-1.64
2022-12-12T05:38:51.747Z,-1.64
2022-12-12T05:39:51.721Z,-1.62
2022-12-12T05:40:51.709Z,-1.61
2022-12-12T05:41:51.688Z,-1.61
2022-12-12T05:42:51.698Z,-1.61
2022-12-12T05:43:51.679Z,-1.61
2022-12-12T05:44:51.679Z,-1.59
2022-12-12T05:46:24.726Z,-1.55
2022-12-12T05:47:24.675Z,-1.58
2022-12-12T05:48:24.845Z,-1.56
2022-12-12T05:49:24.664Z,-1.55
2022-12-12T05:50:24.660Z,-1.54
2022-12-12T05:51:24.620Z,-1.52
2022-12-12T05:52:24.615Z,-1.52
2022-12-12T05:53:24.632Z,-1.51
2022-12-12T05:54:24.602Z,-1.48
2022-12-12T05:55:24.593Z,-1.49
2022-12-12T05:56:24.584Z,-1.48
2022-12-12T05:57:24.556Z,-1.49
2022-12-12T05:58:24.561Z,-1.46
2022-12-12T05:59:24.556Z,-1.45
2022-12-12T06:00:24.539Z,-1.45
2022-12-12T06:01:24.517Z,-1.45
2022-12-12T06:02:24.586Z,-1.45
2022-12-12T06:03:24.495Z,-1.45
2022-12-12T06:04:24.558Z,-1.43
2022-12-12T06:05:24.475Z,-1.43
2022-12-12T06:06:24.492Z,-1.41
2022-12-12T06:07:24.445Z,-1.38
2022-12-12T06:08:25.337Z,-1.38
2022-12-12T06:09:24.442Z,-1.38
2022-12-12T06:10:24.435Z,-1.37
2022-12-12T06:11:24.416Z,-1.35
2022-12-12T06:12:24.406Z,-1.35
2022-12-12T06:13:24.397Z,-1.37
2022-12-12T06:14:24.423Z,-1.37
2022-12-12T06:15:24.373Z,-1.37
2022-12-12T06:16:24.369Z,-1.38
2022-12-12T06:17:27.174Z,-1.37
2022-12-12T06:18:25.479Z,-1.38
2022-12-12T06:19:24.348Z,-1.37
2022-12-12T06:20:24.325Z,-1.38
2022-12-12T06:21:24.306Z,-1.40
2022-12-12T06:22:24.305Z,-1.37
2022-12-12T06:23:24.293Z,-1.38
2022-12-12T06:24:24.302Z,-1.40
2022-12-12T06:25:24.269Z,-1.40
2022-12-12T06:26:24.287Z,-1.41
2022-12-12T06:27:24.264Z,-1.40
2022-12-12T06:28:24.243Z,-1.43
2022-12-12T06:29:24.254Z,-1.41
2022-12-12T06:30:24.228Z,-1.41
2022-12-12T06:31:24.288Z,-1.41
2022-12-12T06:32:24.226Z,-1.43
2022-12-12T06:33:24.194Z,-1.45
2022-12-12T06:34:24.253Z,-1.45
2022-12-12T06:35:24.174Z,-1.46
2022-12-12T06:36:24.237Z,-1.46
2022-12-12T06:37:24.144Z,-1.48
2022-12-12T06:38:24.144Z,-1.46
2022-12-12T06:39:24.119Z,-1.49
2022-12-12T06:40:24.144Z,-1.48
2022-12-12T06:41:24.126Z,-1.48
2022-12-12T06:42:25.449Z,-1.46
2022-12-12T06:43:24.707Z,-1.46
2022-12-12T06:44:24.255Z,-1.48
2022-12-12T06:45:24.108Z,-1.48
2022-12-12T06:46:24.103Z,-1.48
2022-12-12T06:47:24.063Z,-1.46
2022-12-12T06:48:24.039Z,-1.46
2022-12-12T06:49:24.023Z,-1.45
2022-12-12T06:50:24.171Z,-1.48
2022-12-12T06:51:23.995Z,-1.46
2022-12-12T06:52:24.010Z,-1.48
2022-12-12T06:53:24.017Z,-1.49
2022-12-12T06:54:23.966Z,-1.49
2022-12-12T06:55:24.044Z,-1.48
2022-12-12T06:56:23.968Z,-1.49
2022-12-12T06:57:23.945Z,-1.49
2022-12-12T06:58:23.933Z,-1.48
2022-12-12T06:59:23.915Z,-1.51
2022-12-12T07:00:23.926Z,-1.49
2022-12-12T07:01:24.124Z,-1.51
2022-12-12T07:02:29.731Z,-1.49
2022-12-12T07:03:24.876Z,-1.49
2022-12-12T07:04:23.871Z,-1.48
2022-12-12T07:05:23.865Z,-1.48
2022-12-12T07:06:23.885Z,-1.48
2022-12-12T07:07:23.837Z,-1.48
2022-12-12T07:08:23.942Z,-1.46
2022-12-12T07:09:23.818Z,-1.48
2022-12-12T07:10:23.925Z,-1.46
2022-12-12T07:11:23.795Z,-1.45
2022-12-12T07:12:23.792Z,-1.45
2022-12-12T07:13:23.796Z,-1.45
2022-12-12T07:14:23.803Z,-1.43
2022-12-12T07:15:23.765Z,-1.43
2022-12-12T07:16:23.785Z,-1.43
2022-12-12T07:17:23.836Z,-1.40
2022-12-12T07:18:23.725Z,-1.41
2022-12-12T07:19:23.714Z,-1.40
2022-12-12T07:20:23.726Z,-1.38
2022-12-12T07:21:23.688Z,-1.37
2022-12-12T07:22:23.691Z,-1.38
2022-12-12T07:23:23.671Z,-1.38
2022-12-12T07:24:23.664Z,-1.37
2022-12-12T07:25:23.667Z,-1.35
2022-12-12T07:26:23.650Z,-1.35
2022-12-12T07:27:23.629Z,-1.35
2022-12-12T07:28:23.625Z,-1.34
2022-12-12T07:29:23.607Z,-1.35
2022-12-12T07:30:23.607Z,-1.34
2022-12-12T07:31:23.672Z,-1.35
2022-12-12T07:32:23.576Z,-1.35
2022-12-12T07:33:25.020Z,-1.35
2022-12-12T07:34:24.554Z,-1.35
2022-12-12T07:35:23.555Z,-1.35
2022-12-12T07:36:23.536Z,-1.37
2022-12-12T07:37:23.518Z,-1.37
2022-12-12T07:38:23.530Z,-1.37
2022-12-12T07:39:24.260Z,-1.38
2022-12-12T07:40:23.592Z,-1.38
2022-12-12T07:41:23.505Z,-1.38
2022-12-12T07:42:23.481Z,-1.38
2022-12-12T07:43:26.554Z,-1.40
2022-12-12T07:44:23.671Z,-1.40
2022-12-12T07:45:23.877Z,-1.41
2022-12-12T07:46:23.583Z,-1.40
2022-12-12T07:47:23.474Z,-1.41
2022-12-12T07:48:23.427Z,-1.43
2022-12-12T07:49:23.395Z,-1.43
2022-12-12T07:50:23.411Z,-1.45
2022-12-12T07:51:23.413Z,-1.45
2022-12-12T07:52:23.385Z,-1.46
2022-12-12T07:53:23.358Z,-1.46
2022-12-12T07:54:23.349Z,-1.46
2022-12-12T07:55:23.356Z,-1.45
2022-12-12T07:56:23.327Z,-1.45
2022-12-12T07:57:23.315Z,-1.45
2022-12-12T07:58:23.317Z,-1.45
2022-12-12T07:59:23.303Z,-1.43
2022-12-12T08:00:23.492Z,-1.45
2022-12-12T08:01:23.327Z,-1.43
2022-12-12T08:02:23.266Z,-1.45
2022-12-12T08:03:23.258Z,-1.46
2022-12-12T08:04:23.344Z,-1.45
2022-12-12T08:05:23.246Z,-1.48
2022-12-12T08:06:23.232Z,-1.46
2022-12-12T08:07:23.217Z,-1.43
2022-12-12T08:08:23.277Z,-1.46
2022-12-12T08:09:23.198Z,-1.46
2022-12-12T08:10:23.217Z,-1.46
2022-12-12T08:11:23.167Z,-1.46
2022-12-12T08:12:23.177Z,-1.48
2022-12-12T08:13:23.165Z,-1.46
2022-12-12T08:14:23.154Z,-1.43
2022-12-12T08:15:23.136Z,-1.43
2022-12-12T08:16:23.201Z,-1.45
2022-12-12T08:17:23.105Z,-1.45
2022-12-12T08:18:23.092Z,-1.45
2022-12-12T08:19:23.097Z,-1.45
2022-12-12T08:20:23.067Z,-1.43
2022-12-12T08:21:25.889Z,-1.41
2022-12-12T08:22:23.056Z,-1.40
2022-12-12T08:23:23.047Z,-1.38
2022-12-12T08:24:23.046Z,-1.38
2022-12-12T08:25:23.020Z,-1.37
2022-12-12T08:26:23.034Z,-1.38
2022-12-12T08:27:23.035Z,-1.37
2022-12-12T08:28:23.006Z,-1.37
2022-12-12T08:29:22.968Z,-1.37
2022-12-12T08:30:23.007Z,-1.37
2022-12-12T08:31:23.117Z,-1.38
2022-12-12T08:32:22.958Z,-1.37
2022-12-12T08:33:22.934Z,-1.37
2022-12-12T08:34:22.954Z,-1.37
2022-12-12T08:35:22.936Z,-1.40
2022-12-12T08:36:22.916Z,-1.38
2022-12-12T08:37:22.912Z,-1.38
2022-12-12T08:38:22.888Z,-1.37
2022-12-12T08:39:22.859Z,-1.37
2022-12-12T08:40:22.886Z,-1.38
2022-12-12T08:41:22.878Z,-1.38
2022-12-12T08:42:22.860Z,-1.37
2022-12-12T08:43:22.837Z,-1.37
2022-12-12T08:44:22.815Z,-1.38
2022-12-12T08:45:22.845Z,-1.38
2022-12-12T08:46:22.857Z,-1.38
2022-12-12T08:47:22.787Z,-1.38
2022-12-12T08:48:22.767Z,-1.38
2022-12-12T08:49:22.756Z,-1.38
2022-12-12T08:50:22.745Z,-1.37
2022-12-12T08:51:22.786Z,-1.37
2022-12-12T08:52:22.747Z,-1.38
2022-12-12T08:53:22.765Z,-1.37
2022-12-12T08:54:22.728Z,-1.37
2022-12-12T08:55:22.739Z,-1.35
2022-12-12T08:56:22.802Z,-1.35
2022-12-12T08:57:25.940Z,-1.38
2022-12-12T08:58:22.678Z,-1.38
2022-12-12T08:59:22.688Z,-1.33
2022-12-12T09:00:22.716Z,-1.34
2022-12-12T09:01:22.717Z,-1.33
2022-12-12T09:02:22.699Z,-1.33
2022-12-12T09:03:28.966Z,-1.34
2022-12-12T09:04:23.598Z,-1.33
2022-12-12T09:05:22.627Z,-1.31
2022-12-12T09:06:22.577Z,-1.33
2022-12-12T09:07:22.598Z,-1.30
2022-12-12T09:08:22.611Z,-1.31
2022-12-12T09:09:22.555Z,-1.30
2022-12-12T09:10:22.558Z,-1.27
2022-12-12T09:11:22.559Z,-1.23
2022-12-12T09:12:22.506Z,-1.22
2022-12-12T09:13:22.507Z,-1.22
2022-12-12T09:14:22.509Z,-1.16
2022-12-12T09:15:22.537Z,-1.17
2022-12-12T09:16:22.491Z,-1.16
2022-12-12T09:17:22.460Z,-1.15
2022-12-12T09:18:22.474Z,-1.15
2022-12-12T09:19:22.472Z,-1.10
2022-12-12T09:20:22.429Z,-1.13
2022-12-12T09:21:22.426Z,-1.13
2022-12-12T09:22:22.417Z,-1.12
2022-12-12T09:23:22.396Z,-1.12
2022-12-12T09:24:22.378Z,-1.12
2022-12-12T09:25:22.392Z,-1.09
2022-12-12T09:26:22.377Z,-1.07
2022-12-12T09:27:22.349Z,-1.05
2022-12-12T09:28:22.348Z,-1.02
2022-12-12T09:29:22.326Z,-1.01
2022-12-12T09:30:22.394Z,-0.95
2022-12-12T09:31:22.349Z,-0.95
2022-12-12T09:32:24.649Z,-0.98
2022-12-12T09:33:22.279Z,-0.97
2022-12-12T09:34:22.278Z,-0.97
2022-12-12T09:35:22.267Z,-0.97
2022-12-12T09:36:22.265Z,-0.98
2022-12-12T09:37:22.239Z,-0.95
2022-12-12T09:38:22.297Z,-0.91
2022-12-12T09:39:22.245Z,-0.86
2022-12-12T09:40:22.231Z,-0.80
2022-12-12T09:41:22.208Z,-0.80
2022-12-12T09:42:22.189Z,-0.78
2022-12-12T09:43:27.670Z,-0.75
2022-12-12T09:44:23.168Z,-0.70
2022-12-12T09:45:22.248Z,-0.65
2022-12-12T09:46:22.166Z,-0.61
2022-12-12T09:47:22.130Z,-0.60
2022-12-12T09:48:22.160Z,-0.58
2022-12-12T09:49:22.108Z,-0.49
2022-12-12T09:50:22.194Z,-0.54
2022-12-12T09:51:22.109Z,-0.57
2022-12-12T09:52:25.204Z,-0.51
2022-12-12T09:53:23.111Z,-0.44
2022-12-12T09:54:22.060Z,-0.43
2022-12-12T09:55:22.078Z,-0.40
2022-12-12T09:56:22.038Z,-0.33
2022-12-12T09:57:22.029Z,-0.23
2022-12-12T09:58:22.016Z,-0.16
2022-12-12T09:59:22.000Z,-0.05
2022-12-12T10:00:22.052Z,0.00
2022-12-12T10:01:22.011Z,0.03
2022-12-12T10:02:22.035Z,-0.04
2022-12-12T10:03:21.953Z,-0.05
2022-12-12T10:04:21.979Z,-0.04
2022-12-12T10:05:21.966Z,-0.01
2022-12-12T10:06:37.148Z,0.03
2022-12-12T10:07:22.937Z,0.04
2022-12-12T10:08:21.968Z,0.03
2022-12-12T10:09:21.909Z,-0.01
2022-12-12T10:10:22.000Z,-0.03
2022-12-12T10:11:21.878Z,0.00
2022-12-12T10:12:21.870Z,0.04
2022-12-12T10:13:21.863Z,0.08
2022-12-12T10:14:21.917Z,0.11
2022-12-12T10:15:21.839Z,0.17
2022-12-12T10:16:21.892Z,0.17
2022-12-12T10:17:21.839Z,0.18
2022-12-12T10:18:21.799Z,0.21
2022-12-12T10:19:21.789Z,0.31
2022-12-12T10:20:21.848Z,0.38
2022-12-12T10:21:21.851Z,0.44
2022-12-12T10:22:24.492Z,0.53
2022-12-12T10:23:21.742Z,0.53
2022-12-12T10:24:21.737Z,0.57
2022-12-12T10:25:21.722Z,0.55
2022-12-12T10:26:21.710Z,0.57
2022-12-12T10:27:21.702Z,0.69
2022-12-12T10:28:21.693Z,0.73
2022-12-12T10:29:21.679Z,0.79
2022-12-12T10:30:21.679Z,0.91
2022-12-12T10:31:21.689Z,0.93
2022-12-12T10:32:21.663Z,0.86
2022-12-12T10:33:21.632Z,0.90
2022-12-12T10:34:21.622Z,0.91
2022-12-12T10:35:26.403Z,0.97
2022-12-12T10:36:22.592Z,1.05
2022-12-12T10:37:21.605Z,1.08
2022-12-12T10:38:21.638Z,1.11
2022-12-12T10:39:21.597Z,1.08
2022-12-12T10:40:21.561Z,1.11
2022-12-12T10:41:21.546Z,1.18
2022-12-12T10:42:21.544Z,1.23
2022-12-12T10:43:21.523Z,1.23
2022-12-12T10:44:21.515Z,1.23
2022-12-12T10:45:21.612Z,1.24
2022-12-12T10:46:21.592Z,1.26
2022-12-12T10:47:21.493Z,1.33
2022-12-12T10:48:21.474Z,1.42
2022-12-12T10:49:21.456Z,1.51
2022-12-12T10:50:21.447Z,1.51
2022-12-12T10:51:21.427Z,1.51
2022-12-12T10:52:21.480Z,1.50
2022-12-12T10:53:21.406Z,1.51
2022-12-12T10:54:22.093Z,1.58
2022-12-12T10:55:21.397Z,1.55
2022-12-12T10:56:21.386Z,1.55
2022-12-12T10:57:21.398Z,1.60
2022-12-12T10:58:21.421Z,1.68
2022-12-12T10:59:21.395Z,1.73
2022-12-12T11:00:21.361Z,1.76
2022-12-12T11:01:38.410Z,1.86
2022-12-12T11:02:22.455Z,1.90
2022-12-12T11:03:21.378Z,1.86
2022-12-12T11:04:21.310Z,1.95
2022-12-12T11:05:21.388Z,2.06
2022-12-12T11:06:21.276Z,2.06
2022-12-12T11:07:21.269Z,2.07
2022-12-12T11:08:21.307Z,2.21
2022-12-12T11:09:21.271Z,2.20
2022-12-12T11:10:21.240Z,2.16
2022-12-12T11:11:21.231Z,2.09
2022-12-12T11:12:21.223Z,2.07
2022-12-12T11:13:21.191Z,2.06
2022-12-12T11:14:21.185Z,2.14
2022-12-12T11:15:21.163Z,2.23
2022-12-12T11:16:21.229Z,2.28
2022-12-12T11:17:21.164Z,2.24
2022-12-12T11:18:21.134Z,2.25
2022-12-12T11:19:21.136Z,2.27
2022-12-12T11:20:21.115Z,2.27
2022-12-12T11:21:21.207Z,2.25
2022-12-12T11:22:21.117Z,2.25
2022-12-12T11:23:21.235Z,2.31
2022-12-12T11:24:21.074Z,2.39
2022-12-12T11:25:21.054Z,2.41
2022-12-12T11:26:21.098Z,2.48
2022-12-12T11:27:21.046Z,2.54
2022-12-12T11:28:21.034Z,2.56
2022-12-12T11:29:21.040Z,2.57
2022-12-12T11:30:21.007Z,2.60
2022-12-12T11:31:21.037Z,2.59
2022-12-12T11:32:20.979Z,2.54
2022-12-12T11:33:20.977Z,2.56
2022-12-12T11:34:20.969Z,2.61
2022-12-12T11:35:20.940Z,2.77
2022-12-12T11:36:20.938Z,2.84
2022-12-12T11:37:20.919Z,2.84
2022-12-12T11:38:20.939Z,2.82
2022-12-12T11:39:20.900Z,2.89
2022-12-12T11:40:20.891Z,2.81
2022-12-12T11:41:20.903Z,2.78
2022-12-12T11:42:20.860Z,2.69
2022-12-12T11:43:20.974Z,2.66
2022-12-12T11:44:20.900Z,2.77
2022-12-12T11:45:20.835Z,2.85
2022-12-12T11:46:20.867Z,2.99
2022-12-12T11:47:20.825Z,2.99
2022-12-12T11:48:20.831Z,2.96
2022-12-12T11:49:20.813Z,2.87
2022-12-12T11:50:20.830Z,2.89
2022-12-12T11:51:20.774Z,2.99
2022-12-12T11:52:20.763Z,3.03
2022-12-12T11:53:20.765Z,3.02
2022-12-12T11:54:20.735Z,3.00
2022-12-12T11:55:20.732Z,3.05
2022-12-12T11:56:20.717Z,3.05
2022-12-12T11:57:20.705Z,3.11
2022-12-12T11:58:20.698Z,3.15
2022-12-12T11:59:20.726Z,3.06
2022-12-12T12:00:20.697Z,3.13
2022-12-12T12:01:20.658Z,3.17
2022-12-12T12:02:20.777Z,3.24
2022-12-12T12:03:20.690Z,3.31
2022-12-12T12:04:20.686Z,3.28
2022-12-12T12:05:20.620Z,3.29
2022-12-12T12:06:20.619Z,3.36
2022-12-12T12:07:20.600Z,3.39
2022-12-12T12:08:20.643Z,3.35
2022-12-12T12:09:20.570Z,3.40
2022-12-12T12:10:24.207Z,3.42
2022-12-12T12:11:20.628Z,3.45
2022-12-12T12:12:20.535Z,3.48
2022-12-12T12:13:20.541Z,3.51
2022-12-12T12:14:20.520Z,3.54
2022-12-12T12:15:20.501Z,3.51
2022-12-12T12:16:20.560Z,3.50
2022-12-12T12:17:20.489Z,3.52
2022-12-12T12:18:24.996Z,3.54
2022-12-12T12:19:21.475Z,3.54
2022-12-12T12:20:20.495Z,3.57
2022-12-12T12:21:20.434Z,3.58
2022-12-12T12:22:20.424Z,3.61
2022-12-12T12:23:20.435Z,3.60
2022-12-12T12:24:20.399Z,3.51
2022-12-12T12:25:20.403Z,3.51
2022-12-12T12:26:20.403Z,3.61
2022-12-12T12:27:20.376Z,3.66
2022-12-12T12:28:20.369Z,3.62
2022-12-12T12:29:20.358Z,3.65
2022-12-12T12:30:20.380Z,3.62
2022-12-12T12:31:20.331Z,3.62
2022-12-12T12:32:20.316Z,3.61
2022-12-12T12:33:20.330Z,3.60
2022-12-12T12:34:20.300Z,3.61
2022-12-12T12:35:20.289Z,3.60
2022-12-12T12:36:21.433Z,3.66
2022-12-12T12:37:20.339Z,3.75
2022-12-12T12:38:20.262Z,3.75
2022-12-12T12:39:20.242Z,3.78
2022-12-12T12:40:20.233Z,3.80
2022-12-12T12:41:20.232Z,3.90
2022-12-12T12:42:20.210Z,3.93
2022-12-12T12:43:20.209Z,3.78
2022-12-12T12:44:20.203Z,3.73
2022-12-12T12:45:20.173Z,3.75
2022-12-12T12:46:20.263Z,3.75
2022-12-12T12:47:20.168Z,3.76
2022-12-12T12:48:20.156Z,3.79
2022-12-12T12:49:20.171Z,3.78
2022-12-12T12:50:20.137Z,3.75
2022-12-12T12:51:20.119Z,3.70
2022-12-12T12:52:20.110Z,3.62
2022-12-12T12:53:20.120Z,3.68
2022-12-12T12:54:20.088Z,3.68
2022-12-12T12:55:20.079Z,3.68
2022-12-12T12:56:25.229Z,3.70
2022-12-12T12:57:21.058Z,3.68
2022-12-12T12:58:20.054Z,3.69
2022-12-12T12:59:20.077Z,3.73